METAR ET TAF INFORMATION
METAR FOR LFBO
ADDS - METARS form results

(1635 UTC 17 June 2019)
Data provider http://aviationweather.gov/metar/data/
 
METAR text: LFBO 171630Z AUTO 03006KT 350V050 9999 FEW011 30/05 Q1013 NOSIG
Conditions at: LFBO (TOULOUSE/BLAGNAC, FR) observed 1630 UTC 17 June 2019
Temperature: 30.0°C (86°F)
Dewpoint: 5.0°C (41°F) [RH = 21%]
Pressure (altimeter): 29.91 inches Hg (1013.0 mb)
Winds: from the NNE (30 degrees) at 7 MPH (6 knots; 3.1 m/s)
Visibility: 6 or more miles (10+ km)
Ceiling: at least 12,000 feet AGL
Clouds: few clouds at 1100 feet AGL
Weather: no significant weather observed at this time

METAR text: LFBO 171600Z AUTO 05006KT 360V110 CAVOK 30/07 Q1013 NOSIG
Conditions at: LFBO (TOULOUSE/BLAGNAC, FR) observed 1600 UTC 17 June 2019
Temperature: 30.0°C (86°F)
Dewpoint: 7.0°C (45°F) [RH = 24%]
Pressure (altimeter): 29.91 inches Hg (1013.0 mb)
Winds: from the NE (50 degrees) at 7 MPH (6 knots; 3.1 m/s)
Visibility: 6 or more miles (10+ km)
Ceiling: ceiling and visibility are OK
Clouds: unknown
Weather: no significant weather observed at this time

Forecast for: LFBO (TOULOUSE/BLAGNAC, FR)
Text: TAF LFBO 171100Z 1712/1818 08005KT CAVOK
Forecast period: 1200 UTC 17 June 2019 to 0600 UTC 18 June 2019
Forecast type: FROM: standard forecast or significant change
Winds: from the E (80 degrees) at 6 MPH (5 knots; 2.6 m/s)
Visibility: 6 or more miles 10+ km)
Ceiling: unknown
Clouds: missing
Weather: NSW  (no significant weather)
Text: BECMG 1806/1808 13012KT
Forecast period: 0600 to 1800 UTC 18 June 2019
Forecast type: BECOMING: Conditions expected to become as follows by 0800 UTC 18 June 2019
Winds: from the SE (130 degrees) at 14 MPH (12 knots; 6.2 m/s)
Visibility: 6 or more miles 10+ km)
Ceiling: unknown
Clouds: missing
Weather: NSW  (no significant weather)

 AÉROPORT DE AÉROPORT

 INFORMATIONS DE PISTE
Piste 14L Longueur de la piste 9843 ft Largeur de la piste 148 ft
Élévation de la piste 490 ft Seuil de la piste déplacés 0 ft Runway heading 143
Piste 32R Longueur de la piste 9843 ft Largeur de la piste 148 ft
Élévation de la piste 497 ft Seuil de la piste déplacés 0 ft Runway heading 323
Piste 14R Longueur de la piste 11483 ft Largeur de la piste 148 ft
Élévation de la piste 488 ft Seuil de la piste déplacés 0 ft Runway heading 143
Piste 32L Longueur de la piste 11483 ft Largeur de la piste 148 ft
Élévation de la piste 497 ft Seuil de la piste déplacés 0 ft Runway heading 323

 AÉROPORT FRÉQUENCES
Type AFIS Nom TOULOUSE I Féquence 121.25 MHZ
Type APP Nom APP Féquence 121.1 MHZ
Type APP Nom TOULOUSE A Féquence 125.175 MHZ
Type ATIS Nom ATIS Féquence 123.125 MHZ
Type CLD Nom CLNC DEL Féquence 121.7 MHZ
Type GND Nom GND Féquence 121.9 MHZ
Type TWR Nom TWR Féquence 118.1 MHZ

 SIDA DE NAVIGATION
Type NDB Nom Toulouse Féquence 415 KHZ
Type VOR-DME Nom Toulouse Féquence 117700 KHZ
Type NDB Nom Toulouse Féquence 423 KHZ
Type NDB Nom Toulouse Féquence 406 KHZ



Powered by Virtual Airlines Manager [v2.6.2]